createdAt,value
2023-03-29T00:01:35.397Z,49.27
2023-03-29T00:04:06.502Z,49.14
2023-03-29T00:06:38.538Z,49.23
2023-03-29T00:09:10.313Z,49.45
2023-03-29T00:11:41.400Z,49.24
2023-03-29T00:14:13.387Z,48.58
2023-03-29T00:16:45.465Z,49.68
2023-03-29T00:19:16.361Z,49.73
2023-03-29T00:21:46.490Z,49.15
2023-03-29T00:24:17.376Z,48.41
2023-03-29T00:26:47.295Z,47.77
2023-03-29T00:29:19.296Z,48.90
2023-03-29T00:31:54.146Z,49.32
2023-03-29T00:34:30.883Z,49.16
2023-03-29T00:37:01.174Z,49.40
2023-03-29T00:39:32.887Z,50.06
2023-03-29T00:42:03.042Z,50.53
2023-03-29T00:45:02.763Z,50.80
2023-03-29T00:47:37.790Z,51.27
2023-03-29T00:50:15.385Z,49.98
2023-03-29T00:52:48.992Z,49.02
2023-03-29T00:55:23.684Z,48.59
2023-03-29T00:57:56.090Z,48.13
2023-03-29T01:00:32.201Z,47.92
2023-03-29T01:03:03.471Z,49.24
2023-03-29T01:05:37.882Z,50.18
2023-03-29T01:08:13.163Z,50.58
2023-03-29T01:10:47.403Z,49.58
2023-03-29T01:13:23.489Z,49.39
2023-03-29T01:15:56.756Z,50.46
2023-03-29T01:18:26.583Z,50.26
2023-03-29T01:21:12.746Z,50.86
2023-03-29T01:24:07.357Z,51.28
2023-03-29T01:26:45.185Z,50.11
2023-03-29T01:29:22.069Z,50.32
2023-03-29T01:31:57.157Z,48.92
2023-03-29T01:34:31.512Z,48.59
2023-03-29T01:37:06.667Z,50.17
2023-03-29T01:39:37.035Z,51.40
2023-03-29T01:42:18.835Z,53.02
2023-03-29T01:44:56.850Z,51.68
2023-03-29T01:47:33.152Z,52.52
2023-03-29T01:50:10.077Z,50.08
2023-03-29T01:52:44.637Z,50.50
2023-03-29T01:55:17.544Z,50.32
2023-03-29T01:57:49.510Z,50.61
2023-03-29T02:00:25.233Z,49.80
2023-03-29T02:03:01.166Z,49.54
2023-03-29T02:05:32.797Z,51.43
2023-03-29T02:08:05.964Z,52.00
2023-03-29T02:10:37.665Z,53.18
2023-03-29T02:13:08.448Z,51.58
2023-03-29T02:15:40.408Z,50.95
2023-03-29T02:18:11.723Z,50.29
2023-03-29T02:20:44.683Z,49.38
2023-03-29T02:23:21.938Z,49.81
2023-03-29T02:25:53.847Z,51.35
2023-03-29T02:28:25.704Z,52.38
2023-03-29T02:31:03.819Z,51.41
2023-03-29T02:33:36.902Z,50.15
2023-03-29T02:36:12.197Z,49.88
2023-03-29T02:38:42.956Z,49.84
2023-03-29T02:41:13.703Z,48.63
2023-03-29T02:43:45.912Z,49.89
2023-03-29T02:46:18.972Z,50.62
2023-03-29T02:48:51.715Z,49.93
2023-03-29T02:51:24.216Z,50.77
2023-03-29T02:53:59.014Z,50.65
2023-03-29T02:56:29.770Z,51.14
2023-03-29T02:58:59.706Z,50.99
2023-03-29T03:01:31.699Z,49.70
2023-03-29T03:04:02.962Z,51.95
2023-03-29T03:06:38.013Z,50.20
2023-03-29T03:09:10.946Z,49.44
2023-03-29T03:11:41.157Z,48.53
2023-03-29T03:14:11.785Z,49.04
2023-03-29T03:16:43.422Z,47.64
2023-03-29T03:19:14.683Z,47.60
2023-03-29T03:21:47.341Z,47.00
2023-03-29T03:24:17.883Z,46.66
2023-03-29T03:26:48.421Z,47.01
2023-03-29T03:29:19.636Z,48.23
2023-03-29T03:31:54.179Z,48.55
2023-03-29T03:34:26.754Z,47.77
2023-03-29T03:36:58.632Z,47.41
2023-03-29T03:39:30.904Z,46.76
2023-03-29T03:42:02.069Z,47.09
2023-03-29T03:44:33.179Z,47.24
2023-03-29T03:47:08.036Z,46.96
2023-03-29T03:49:39.769Z,46.41
2023-03-29T03:52:11.811Z,46.17
2023-03-29T03:54:42.587Z,46.10
2023-03-29T03:57:13.408Z,46.84
2023-03-29T03:59:44.268Z,45.70
2023-03-29T04:02:16.814Z,46.00
2023-03-29T04:04:48.925Z,47.76
2023-03-29T04:07:20.362Z,48.23
2023-03-29T04:09:50.933Z,47.92
2023-03-29T04:12:21.107Z,47.09
2023-03-29T04:14:51.006Z,46.85
2023-03-29T04:17:22.983Z,47.39
2023-03-29T04:19:53.856Z,47.12
2023-03-29T04:22:25.636Z,47.36
2023-03-29T04:24:56.798Z,48.09
2023-03-29T04:27:26.992Z,49.09
2023-03-29T04:29:57.740Z,47.93
2023-03-29T04:32:30.045Z,46.92
2023-03-29T04:34:59.771Z,46.57
2023-03-29T04:37:30.290Z,48.57
2023-03-29T04:40:01.174Z,49.12
2023-03-29T04:42:31.809Z,48.60
2023-03-29T04:45:02.515Z,49.43
2023-03-29T04:47:36.644Z,48.41
2023-03-29T04:50:08.463Z,48.21
2023-03-29T04:52:38.837Z,48.26
2023-03-29T04:55:12.690Z,48.61
2023-03-29T04:57:46.875Z,47.71
2023-03-29T05:00:20.891Z,47.39
2023-03-29T05:02:53.324Z,48.05
2023-03-29T05:05:23.281Z,48.43
2023-03-29T05:07:53.686Z,49.06
2023-03-29T05:10:23.741Z,48.60
2023-03-29T05:12:56.901Z,48.93
2023-03-29T05:15:26.913Z,49.22
2023-03-29T05:17:59.232Z,48.99
2023-03-29T05:20:30.055Z,48.67
2023-03-29T05:23:01.125Z,48.05
2023-03-29T05:25:31.698Z,46.94
2023-03-29T05:28:02.680Z,46.35
2023-03-29T05:30:32.542Z,47.42
2023-03-29T05:33:07.337Z,48.64
2023-03-29T05:35:38.253Z,48.10
2023-03-29T05:38:09.500Z,46.98
2023-03-29T05:40:41.701Z,47.98
2023-03-29T05:43:12.811Z,47.52
2023-03-29T05:45:43.530Z,47.93
2023-03-29T05:48:15.663Z,47.60
2023-03-29T05:50:51.114Z,47.35
2023-03-29T05:53:22.915Z,47.63
2023-03-29T05:55:54.426Z,47.49
2023-03-29T05:58:27.017Z,47.13
2023-03-29T06:00:57.996Z,45.96
2023-03-29T06:03:30.774Z,46.65
2023-03-29T06:06:02.625Z,45.23
2023-03-29T06:08:33.162Z,44.86
2023-03-29T06:11:05.368Z,44.62
2023-03-29T06:13:37.660Z,44.77
2023-03-29T06:16:09.496Z,45.26
2023-03-29T06:18:41.490Z,45.70
2023-03-29T06:21:11.168Z,43.71
2023-03-29T06:23:42.592Z,44.37
2023-03-29T06:26:13.138Z,46.24
2023-03-29T06:28:43.231Z,47.08
2023-03-29T06:31:13.869Z,49.08
2023-03-29T06:33:45.938Z,49.38
2023-03-29T06:36:17.354Z,47.29
2023-03-29T06:38:47.312Z,48.63
2023-03-29T06:41:18.156Z,49.30
2023-03-29T06:43:49.096Z,50.09
2023-03-29T06:46:19.778Z,50.08
2023-03-29T06:48:51.698Z,48.59
2023-03-29T06:51:23.523Z,51.54
2023-03-29T06:53:53.609Z,51.76
2023-03-29T06:56:24.348Z,51.15
2023-03-29T06:58:55.237Z,50.79
2023-03-29T07:01:25.547Z,52.34
2023-03-29T07:03:58.936Z,50.38
2023-03-29T07:06:29.079Z,53.28
2023-03-29T07:09:00.012Z,51.47
2023-03-29T07:11:31.986Z,50.90
2023-03-29T07:14:05.417Z,50.88
2023-03-29T07:16:37.284Z,49.46
2023-03-29T07:19:10.463Z,48.23
2023-03-29T07:21:41.010Z,48.18
2023-03-29T07:24:11.678Z,47.21
2023-03-29T07:26:52.225Z,46.13
2023-03-29T07:29:31.263Z,46.53
2023-03-29T07:32:01.619Z,46.23
2023-03-29T07:34:33.608Z,46.94
2023-03-29T07:37:04.023Z,47.68
2023-03-29T07:39:34.487Z,47.25
2023-03-29T07:42:04.787Z,46.80
2023-03-29T07:44:35.987Z,48.19
2023-03-29T07:47:07.215Z,47.31
2023-03-29T07:49:38.940Z,46.09
2023-03-29T07:52:09.875Z,46.43
2023-03-29T07:54:40.769Z,47.48
2023-03-29T07:57:11.327Z,46.79
2023-03-29T07:59:42.186Z,45.39
2023-03-29T08:02:13.637Z,45.02
2023-03-29T08:04:47.222Z,45.38
2023-03-29T08:07:19.501Z,45.14
2023-03-29T08:09:50.332Z,45.10
2023-03-29T08:12:22.561Z,45.44
2023-03-29T08:14:54.850Z,45.23
2023-03-29T08:17:25.835Z,45.33
2023-03-29T08:19:58.651Z,44.09
2023-03-29T08:22:28.791Z,42.79
2023-03-29T08:24:59.348Z,43.17
2023-03-29T08:27:29.223Z,42.26
2023-03-29T08:30:00.343Z,43.27
2023-03-29T08:32:30.785Z,44.77
2023-03-29T08:35:04.650Z,42.97
2023-03-29T08:37:35.645Z,43.88
2023-03-29T08:40:07.310Z,47.06
2023-03-29T08:42:58.466Z,47.33
2023-03-29T08:45:34.659Z,46.91
2023-03-29T08:48:14.365Z,46.98
2023-03-29T08:50:49.413Z,47.12
2023-03-29T08:53:21.235Z,46.81
2023-03-29T08:55:52.320Z,46.92
2023-03-29T08:58:25.309Z,45.66
2023-03-29T09:00:57.658Z,46.59
2023-03-29T09:03:31.633Z,45.20
2023-03-29T09:06:08.044Z,46.27
2023-03-29T09:08:41.333Z,46.17
2023-03-29T09:11:33.378Z,46.60
2023-03-29T09:14:12.338Z,46.05
2023-03-29T09:16:50.046Z,46.59
2023-03-29T09:19:28.764Z,46.57
2023-03-29T09:22:07.759Z,46.08
2023-03-29T09:24:54.801Z,45.34
2023-03-29T09:27:28.185Z,44.98
2023-03-29T09:30:25.137Z,46.02
2023-03-29T09:32:57.670Z,45.28
2023-03-29T09:35:33.555Z,44.57
2023-03-29T09:38:06.281Z,44.70
2023-03-29T09:40:42.936Z,44.68
2023-03-29T09:43:16.557Z,46.79
2023-03-29T09:45:50.258Z,47.51
2023-03-29T09:48:22.280Z,46.60
2023-03-29T09:50:53.688Z,45.87
2023-03-29T09:53:26.806Z,44.90
2023-03-29T09:55:57.164Z,45.29
2023-03-29T09:58:48.196Z,44.42
2023-03-29T10:01:19.833Z,43.41
2023-03-29T10:03:54.670Z,44.56
2023-03-29T10:06:27.189Z,44.94
2023-03-29T10:08:59.633Z,46.22
2023-03-29T10:11:34.137Z,45.61
2023-03-29T10:14:05.705Z,43.61
2023-03-29T10:16:39.053Z,44.14
2023-03-29T10:19:22.705Z,43.59
2023-03-29T10:21:54.389Z,45.13
2023-03-29T10:24:27.718Z,43.82
2023-03-29T10:27:01.644Z,44.49
2023-03-29T10:29:39.640Z,44.29
2023-03-29T10:32:18.083Z,43.49
2023-03-29T10:34:49.312Z,42.50
2023-03-29T10:37:22.039Z,43.94
2023-03-29T10:39:53.954Z,43.58
2023-03-29T10:42:27.340Z,42.93
2023-03-29T10:44:59.471Z,41.93
2023-03-29T10:47:35.796Z,41.11
2023-03-29T10:50:10.126Z,41.72
2023-03-29T10:52:42.833Z,40.00
2023-03-29T10:55:19.028Z,43.25
2023-03-29T10:57:58.272Z,40.47
2023-03-29T11:00:35.344Z,41.52
2023-03-29T11:03:28.713Z,40.19
2023-03-29T11:06:04.523Z,40.06
2023-03-29T11:08:44.301Z,42.01
2023-03-29T11:11:45.924Z,41.58
2023-03-29T11:14:28.338Z,41.68
2023-03-29T11:17:07.119Z,43.07
2023-03-29T11:19:55.776Z,42.31
2023-03-29T11:22:34.527Z,42.74
2023-03-29T11:25:30.314Z,40.71
2023-03-29T11:28:08.452Z,41.33
2023-03-29T11:30:43.145Z,41.92
2023-03-29T11:33:24.146Z,42.29
2023-03-29T11:35:58.454Z,41.42
2023-03-29T11:38:34.246Z,41.25
2023-03-29T11:41:07.886Z,41.40
2023-03-29T11:43:44.971Z,43.55
2023-03-29T11:46:17.871Z,43.13
2023-03-29T11:48:53.406Z,41.84
2023-03-29T11:51:28.416Z,41.31
2023-03-29T11:54:03.393Z,42.10
2023-03-29T11:56:38.134Z,41.43
2023-03-29T11:59:17.069Z,41.51
2023-03-29T12:01:50.898Z,41.14
2023-03-29T12:04:24.018Z,42.25
2023-03-29T12:07:01.788Z,40.40
2023-03-29T12:09:36.001Z,40.12
2023-03-29T12:12:10.524Z,38.98
2023-03-29T12:14:55.943Z,40.91
2023-03-29T12:17:31.864Z,41.61
2023-03-29T12:20:08.303Z,40.69
2023-03-29T12:22:39.905Z,38.23
2023-03-29T12:25:14.308Z,37.00
2023-03-29T12:27:51.841Z,37.04
2023-03-29T12:30:53.343Z,38.14
2023-03-29T12:33:36.778Z,34.20
2023-03-29T12:36:19.768Z,34.60
2023-03-29T12:38:52.691Z,34.91
2023-03-29T12:41:24.597Z,36.64
2023-03-29T12:43:54.867Z,36.65
2023-03-29T12:46:28.068Z,36.64
2023-03-29T12:49:00.005Z,37.84
2023-03-29T12:51:33.193Z,39.43
2023-03-29T12:54:09.377Z,38.10
2023-03-29T12:56:43.550Z,37.49
2023-03-29T12:59:36.499Z,37.67
2023-03-29T13:02:37.646Z,36.09
2023-03-29T13:05:30.085Z,37.08
2023-03-29T13:08:00.664Z,35.98
2023-03-29T13:10:41.608Z,36.96
2023-03-29T13:13:19.079Z,35.41
2023-03-29T13:15:50.780Z,35.91
2023-03-29T13:18:53.385Z,36.14
2023-03-29T13:21:29.788Z,36.65
2023-03-29T13:24:07.824Z,37.28
2023-03-29T13:26:51.794Z,37.20
2023-03-29T13:29:58.475Z,37.36
2023-03-29T13:32:53.074Z,37.08
2023-03-29T13:35:33.731Z,38.78
2023-03-29T13:38:11.425Z,38.40
2023-03-29T13:40:48.709Z,37.31
2023-03-29T13:43:25.343Z,37.52
2023-03-29T13:46:20.841Z,37.14
2023-03-29T13:48:57.437Z,37.71
2023-03-29T13:51:40.819Z,39.50
2023-03-29T13:54:30.185Z,38.54
2023-03-29T13:57:13.536Z,38.33
2023-03-29T13:59:56.512Z,37.75
2023-03-29T14:02:47.390Z,39.99
2023-03-29T14:05:21.224Z,39.08
2023-03-29T14:07:55.575Z,37.84
2023-03-29T14:10:29.498Z,38.88
2023-03-29T14:13:04.581Z,39.69
2023-03-29T14:15:46.817Z,39.41
2023-03-29T14:18:19.642Z,40.04
2023-03-29T14:20:54.163Z,38.90
2023-03-29T14:23:32.303Z,39.13
2023-03-29T14:26:11.897Z,40.00
2023-03-29T14:28:47.614Z,40.63
2023-03-29T14:31:33.766Z,38.21
2023-03-29T14:34:06.379Z,38.49
2023-03-29T14:36:36.744Z,38.25
2023-03-29T14:39:13.564Z,36.95
2023-03-29T14:41:48.711Z,37.69
2023-03-29T14:44:22.222Z,37.14
2023-03-29T14:46:53.502Z,37.36
2023-03-29T14:49:25.061Z,37.34
2023-03-29T14:51:59.549Z,36.54
2023-03-29T14:54:36.302Z,36.62
2023-03-29T14:57:09.549Z,36.54
2023-03-29T14:59:41.007Z,36.83
2023-03-29T15:02:28.455Z,36.23
2023-03-29T15:05:03.709Z,37.13
2023-03-29T15:07:35.393Z,35.66
2023-03-29T15:10:08.780Z,36.49
2023-03-29T15:12:40.143Z,35.97
2023-03-29T15:15:13.986Z,35.52
2023-03-29T15:17:51.830Z,35.33
2023-03-29T15:20:24.772Z,35.62
2023-03-29T15:22:58.145Z,36.45
2023-03-29T15:25:35.568Z,34.97
2023-03-29T15:28:07.230Z,35.41
2023-03-29T15:30:40.827Z,34.86
2023-03-29T15:33:18.074Z,36.06
2023-03-29T15:35:53.131Z,37.80
2023-03-29T15:38:30.333Z,35.78
2023-03-29T15:41:10.925Z,36.12
2023-03-29T15:43:42.874Z,36.54
2023-03-29T15:46:15.051Z,35.97
2023-03-29T15:48:46.639Z,35.29
2023-03-29T15:51:17.505Z,36.04
2023-03-29T15:53:49.111Z,36.01
2023-03-29T15:56:23.793Z,36.52
2023-03-29T15:58:54.580Z,36.79
2023-03-29T16:01:34.009Z,36.19
2023-03-29T16:04:05.715Z,37.33
2023-03-29T16:06:37.867Z,37.75
2023-03-29T16:09:08.923Z,38.17
2023-03-29T16:11:47.146Z,37.66
2023-03-29T16:14:27.392Z,38.09
2023-03-29T16:17:00.180Z,37.11
2023-03-29T16:19:34.390Z,35.77
2023-03-29T16:22:08.098Z,36.21
2023-03-29T16:24:39.668Z,36.58
2023-03-29T16:27:11.448Z,37.29
2023-03-29T16:29:41.796Z,37.32
2023-03-29T16:32:13.484Z,38.06
2023-03-29T16:34:43.661Z,38.01
2023-03-29T16:37:14.463Z,37.68
2023-03-29T16:39:46.809Z,38.27
2023-03-29T16:42:19.392Z,37.48
2023-03-29T16:44:49.980Z,37.47
2023-03-29T16:47:23.169Z,37.73
2023-03-29T16:49:53.767Z,37.81
2023-03-29T16:52:25.310Z,37.86
2023-03-29T16:54:55.610Z,37.79
2023-03-29T16:57:28.571Z,37.48
2023-03-29T17:00:00.007Z,36.06
2023-03-29T17:02:31.050Z,36.03
2023-03-29T17:05:00.868Z,36.55
2023-03-29T17:07:32.608Z,37.43
2023-03-29T17:10:04.958Z,36.78
2023-03-29T17:12:41.898Z,36.89
2023-03-29T17:15:12.730Z,38.65
2023-03-29T17:17:43.591Z,37.70
2023-03-29T17:20:15.782Z,38.12
2023-03-29T17:22:46.502Z,37.54
2023-03-29T17:25:17.084Z,38.37
2023-03-29T17:27:49.176Z,38.08
2023-03-29T17:30:19.339Z,37.32
2023-03-29T17:32:54.133Z,37.16
2023-03-29T17:35:25.240Z,36.99
2023-03-29T17:37:56.444Z,37.95
2023-03-29T17:40:27.902Z,39.29
2023-03-29T17:43:00.144Z,38.77
2023-03-29T17:45:32.569Z,39.32
2023-03-29T17:48:06.241Z,40.68
2023-03-29T17:50:37.486Z,40.40
2023-03-29T17:53:07.563Z,41.48
2023-03-29T17:55:41.250Z,40.53
2023-03-29T17:58:13.810Z,41.66
2023-03-29T18:00:44.458Z,43.40
2023-03-29T18:03:15.651Z,42.03
2023-03-29T18:05:45.843Z,41.87
2023-03-29T18:08:17.541Z,41.82
2023-03-29T18:10:47.982Z,42.84
2023-03-29T18:13:25.717Z,43.09
2023-03-29T18:16:02.781Z,44.62
2023-03-29T18:18:33.408Z,43.39
2023-03-29T18:21:07.108Z,43.86
2023-03-29T18:23:40.172Z,45.66
2023-03-29T18:26:10.644Z,45.72
2023-03-29T18:28:44.222Z,46.09
2023-03-29T18:31:14.569Z,45.67
2023-03-29T18:33:47.477Z,46.31
2023-03-29T18:36:17.897Z,48.03
2023-03-29T18:38:49.273Z,47.74
2023-03-29T18:41:21.267Z,47.04
2023-03-29T18:43:58.150Z,46.32
2023-03-29T18:46:31.554Z,47.73
2023-03-29T18:49:02.737Z,48.67
2023-03-29T18:51:34.074Z,48.20
2023-03-29T18:54:06.365Z,48.48
2023-03-29T18:56:37.220Z,48.50
2023-03-29T18:59:10.127Z,49.94
2023-03-29T19:01:41.533Z,49.62
2023-03-29T19:04:13.917Z,48.82
2023-03-29T19:06:44.560Z,49.13
2023-03-29T19:09:14.635Z,49.32
2023-03-29T19:11:48.101Z,48.67
2023-03-29T19:14:23.795Z,49.68
2023-03-29T19:16:54.197Z,49.67
2023-03-29T19:19:26.495Z,50.88
2023-03-29T19:21:59.084Z,50.12
2023-03-29T19:24:31.048Z,50.53
2023-03-29T19:27:02.635Z,51.55
2023-03-29T19:29:34.896Z,51.36
2023-03-29T19:32:07.247Z,51.11
2023-03-29T19:34:37.879Z,50.78
2023-03-29T19:37:08.623Z,52.24
2023-03-29T19:39:40.594Z,51.82
2023-03-29T19:42:10.769Z,50.59
2023-03-29T19:44:43.546Z,51.42
2023-03-29T19:47:13.932Z,50.33
2023-03-29T19:49:46.552Z,51.68
2023-03-29T19:52:17.105Z,52.63
2023-03-29T19:54:47.925Z,52.81
2023-03-29T19:57:17.815Z,51.94
2023-03-29T19:59:52.115Z,51.81
2023-03-29T20:02:23.754Z,51.94
2023-03-29T20:04:55.933Z,52.19
2023-03-29T20:07:26.099Z,53.09
2023-03-29T20:09:56.847Z,51.23
2023-03-29T20:12:30.685Z,50.79
2023-03-29T20:15:02.754Z,50.53
2023-03-29T20:17:35.798Z,51.05
2023-03-29T20:20:15.406Z,51.12
2023-03-29T20:22:47.438Z,52.39
2023-03-29T20:25:17.755Z,52.23
2023-03-29T20:27:49.168Z,52.66
2023-03-29T20:30:21.567Z,53.27
2023-03-29T20:32:53.086Z,52.69
2023-03-29T20:35:27.437Z,52.50
2023-03-29T20:37:57.597Z,51.97
2023-03-29T20:40:29.190Z,52.63
2023-03-29T20:42:59.357Z,52.37
2023-03-29T20:45:39.860Z,52.83
2023-03-29T20:48:17.220Z,53.16
2023-03-29T20:50:48.926Z,52.43
2023-03-29T20:53:20.613Z,54.06
2023-03-29T20:55:52.451Z,53.72
2023-03-29T20:58:24.094Z,53.89
2023-03-29T21:00:56.386Z,54.25
2023-03-29T21:03:28.906Z,55.24
2023-03-29T21:06:02.462Z,55.40
2023-03-29T21:08:34.204Z,54.97
2023-03-29T21:11:05.723Z,54.45
2023-03-29T21:13:37.331Z,56.59
2023-03-29T21:16:16.789Z,55.26
2023-03-29T21:18:47.365Z,56.20
2023-03-29T21:21:17.913Z,56.71
2023-03-29T21:23:48.680Z,57.38
2023-03-29T21:26:19.735Z,55.92
2023-03-29T21:28:49.915Z,56.48
2023-03-29T21:31:25.670Z,54.83
2023-03-29T21:33:57.056Z,57.39
2023-03-29T21:36:29.648Z,56.80
2023-03-29T21:38:59.720Z,55.50
2023-03-29T21:41:30.430Z,57.05
2023-03-29T21:44:00.813Z,57.58
2023-03-29T21:46:32.864Z,56.75
2023-03-29T21:49:03.830Z,55.98
2023-03-29T21:51:35.733Z,56.24
2023-03-29T21:54:06.002Z,59.03
2023-03-29T21:56:36.844Z,56.37
2023-03-29T21:59:07.793Z,56.35
2023-03-29T22:01:40.545Z,56.34
2023-03-29T22:04:12.324Z,55.87
2023-03-29T22:06:43.595Z,55.76
2023-03-29T22:09:14.210Z,56.86
2023-03-29T22:11:45.332Z,55.33
2023-03-29T22:14:16.709Z,57.28
2023-03-29T22:16:48.624Z,58.55
2023-03-29T22:19:20.318Z,57.34
2023-03-29T22:21:52.451Z,56.55
2023-03-29T22:24:22.974Z,55.92
2023-03-29T22:26:53.241Z,55.25
2023-03-29T22:29:24.091Z,57.27
2023-03-29T22:31:56.106Z,58.20
2023-03-29T22:34:27.387Z,58.80
2023-03-29T22:36:57.332Z,57.16
2023-03-29T22:39:28.859Z,56.39
2023-03-29T22:41:59.358Z,57.95
2023-03-29T22:44:30.378Z,58.26
2023-03-29T22:47:05.015Z,57.41
2023-03-29T22:49:36.634Z,57.26
2023-03-29T22:52:07.251Z,56.10
2023-03-29T22:54:37.953Z,57.65
2023-03-29T22:57:13.743Z,57.64
2023-03-29T22:59:43.584Z,58.39
2023-03-29T23:02:15.444Z,57.11
2023-03-29T23:04:45.914Z,56.19
2023-03-29T23:07:16.339Z,56.61
2023-03-29T23:09:47.549Z,57.26
2023-03-29T23:12:18.012Z,57.97
2023-03-29T23:14:48.190Z,58.96
2023-03-29T23:17:21.075Z,59.12
2023-03-29T23:19:52.352Z,59.21
2023-03-29T23:22:23.373Z,57.30
2023-03-29T23:24:54.104Z,56.81
2023-03-29T23:27:26.093Z,56.41
2023-03-29T23:29:57.390Z,56.81
2023-03-29T23:32:28.855Z,55.79
2023-03-29T23:35:00.352Z,56.86
2023-03-29T23:37:30.796Z,56.62
2023-03-29T23:40:01.127Z,55.54
2023-03-29T23:42:32.755Z,55.67
2023-03-29T23:45:04.605Z,57.19
2023-03-29T23:47:37.069Z,57.72
2023-03-29T23:50:10.415Z,58.64
2023-03-29T23:52:41.392Z,58.60
2023-03-29T23:55:16.579Z,57.22
2023-03-29T23:57:46.511Z,55.13
